sensor_id;sensor_type;location;lat;lon;timestamp;temperature;humidity
46706;DHT22;33519;50.712;7.124;2023-03-11T00:00:53;1.80;99.90
46706;DHT22;33519;50.712;7.124;2023-03-11T00:03:20;1.90;99.90
46706;DHT22;33519;50.712;7.124;2023-03-11T00:05:50;1.90;99.90
46706;DHT22;33519;50.712;7.124;2023-03-11T00:08:19;1.90;99.90
46706;DHT22;33519;50.712;7.124;2023-03-11T00:10:47;1.90;99.90
46706;DHT22;33519;50.712;7.124;2023-03-11T00:13:14;1.90;99.90
46706;DHT22;33519;50.712;7.124;2023-03-11T00:15:42;1.90;99.90
46706;DHT22;33519;50.712;7.124;2023-03-11T00:18:09;1.90;99.90
46706;DHT22;33519;50.712;7.124;2023-03-11T00:20:37;2.00;99.90
46706;DHT22;33519;50.712;7.124;2023-03-11T00:23:04;2.00;99.90
46706;DHT22;33519;50.712;7.124;2023-03-11T00:25:31;2.00;99.90
46706;DHT22;33519;50.712;7.124;2023-03-11T00:27:58;2.00;99.90
46706;DHT22;33519;50.712;7.124;2023-03-11T00:30:26;2.00;99.90
46706;DHT22;33519;50.712;7.124;2023-03-11T00:32:54;2.00;99.90
46706;DHT22;33519;50.712;7.124;2023-03-11T00:35:27;2.00;99.90
46706;DHT22;33519;50.712;7.124;2023-03-11T00:37:56;2.00;99.90
46706;DHT22;33519;50.712;7.124;2023-03-11T00:40:24;2.00;99.90
46706;DHT22;33519;50.712;7.124;2023-03-11T00:42:50;1.90;99.90
46706;DHT22;33519;50.712;7.124;2023-03-11T00:45:18;1.90;99.90
46706;DHT22;33519;50.712;7.124;2023-03-11T00:47:44;2.00;99.90
46706;DHT22;33519;50.712;7.124;2023-03-11T00:50:18;1.90;99.90
46706;DHT22;33519;50.712;7.124;2023-03-11T00:52:46;1.90;99.90
46706;DHT22;33519;50.712;7.124;2023-03-11T00:55:14;2.00;99.90
46706;DHT22;33519;50.712;7.124;2023-03-11T00:57:41;2.00;99.90
46706;DHT22;33519;50.712;7.124;2023-03-11T01:00:08;2.00;99.90
46706;DHT22;33519;50.712;7.124;2023-03-11T01:02:37;1.90;99.90
46706;DHT22;33519;50.712;7.124;2023-03-11T01:05:04;1.90;99.90
46706;DHT22;33519;50.712;7.124;2023-03-11T01:07:31;1.90;99.90
46706;DHT22;33519;50.712;7.124;2023-03-11T01:09:59;1.90;99.90
46706;DHT22;33519;50.712;7.124;2023-03-11T01:12:25;1.80;99.90
46706;DHT22;33519;50.712;7.124;2023-03-11T01:14:52;1.80;99.90
46706;DHT22;33519;50.712;7.124;2023-03-11T01:17:19;1.70;99.90
46706;DHT22;33519;50.712;7.124;2023-03-11T01:19:47;1.70;99.90
46706;DHT22;33519;50.712;7.124;2023-03-11T01:22:14;1.60;99.90
46706;DHT22;33519;50.712;7.124;2023-03-11T01:24:41;1.60;99.90
46706;DHT22;33519;50.712;7.124;2023-03-11T01:27:07;1.50;99.90
46706;DHT22;33519;50.712;7.124;2023-03-11T01:29:34;1.60;99.90
46706;DHT22;33519;50.712;7.124;2023-03-11T01:32:00;1.60;99.90
46706;DHT22;33519;50.712;7.124;2023-03-11T01:34:27;1.60;99.90
46706;DHT22;33519;50.712;7.124;2023-03-11T01:36:53;1.60;99.90
46706;DHT22;33519;50.712;7.124;2023-03-11T01:39:20;1.60;99.90
46706;DHT22;33519;50.712;7.124;2023-03-11T01:41:47;1.70;99.90
46706;DHT22;33519;50.712;7.124;2023-03-11T01:44:13;1.70;99.90
46706;DHT22;33519;50.712;7.124;2023-03-11T01:49:20;1.80;99.90
46706;DHT22;33519;50.712;7.124;2023-03-11T01:51:47;1.80;99.90
46706;DHT22;33519;50.712;7.124;2023-03-11T01:54:20;1.80;99.90
46706;DHT22;33519;50.712;7.124;2023-03-11T01:56:47;1.80;99.90
46706;DHT22;33519;50.712;7.124;2023-03-11T01:59:14;1.80;99.90
46706;DHT22;33519;50.712;7.124;2023-03-11T02:01:44;1.80;99.90
46706;DHT22;33519;50.712;7.124;2023-03-11T02:04:13;1.80;99.90
46706;DHT22;33519;50.712;7.124;2023-03-11T02:06:40;1.80;99.90
46706;DHT22;33519;50.712;7.124;2023-03-11T02:09:06;1.80;99.90
46706;DHT22;33519;50.712;7.124;2023-03-11T02:11:33;1.80;99.90
46706;DHT22;33519;50.712;7.124;2023-03-11T02:14:02;1.70;99.90
46706;DHT22;33519;50.712;7.124;2023-03-11T02:16:29;1.70;99.90
46706;DHT22;33519;50.712;7.124;2023-03-11T02:18:57;1.70;99.90
46706;DHT22;33519;50.712;7.124;2023-03-11T02:21:29;1.70;99.90
46706;DHT22;33519;50.712;7.124;2023-03-11T02:24:11;1.70;99.90
46706;DHT22;33519;50.712;7.124;2023-03-11T02:29:07;1.70;99.90
46706;DHT22;33519;50.712;7.124;2023-03-11T02:31:35;1.70;99.90
46706;DHT22;33519;50.712;7.124;2023-03-11T02:34:03;1.70;99.90
46706;DHT22;33519;50.712;7.124;2023-03-11T02:36:35;1.70;99.90
46706;DHT22;33519;50.712;7.124;2023-03-11T02:39:11;1.70;99.90
46706;DHT22;33519;50.712;7.124;2023-03-11T02:41:39;1.70;99.90
46706;DHT22;33519;50.712;7.124;2023-03-11T02:44:07;1.70;99.90
46706;DHT22;33519;50.712;7.124;2023-03-11T02:46:36;1.70;99.90
46706;DHT22;33519;50.712;7.124;2023-03-11T02:49:04;1.60;99.90
46706;DHT22;33519;50.712;7.124;2023-03-11T02:51:31;1.60;99.90
46706;DHT22;33519;50.712;7.124;2023-03-11T02:53:58;1.60;99.90
46706;DHT22;33519;50.712;7.124;2023-03-11T02:56:26;1.60;99.90
46706;DHT22;33519;50.712;7.124;2023-03-11T02:58:54;1.50;99.90
46706;DHT22;33519;50.712;7.124;2023-03-11T03:01:20;1.50;99.90
46706;DHT22;33519;50.712;7.124;2023-03-11T03:03:47;1.50;99.90
46706;DHT22;33519;50.712;7.124;2023-03-11T03:06:14;1.50;99.90
46706;DHT22;33519;50.712;7.124;2023-03-11T03:08:40;1.50;99.90
46706;DHT22;33519;50.712;7.124;2023-03-11T03:11:07;1.50;99.90
46706;DHT22;33519;50.712;7.124;2023-03-11T03:13:34;1.50;99.90
46706;DHT22;33519;50.712;7.124;2023-03-11T03:16:03;1.50;99.90
46706;DHT22;33519;50.712;7.124;2023-03-11T03:18:30;1.50;99.90
46706;DHT22;33519;50.712;7.124;2023-03-11T03:20:57;1.50;99.90
46706;DHT22;33519;50.712;7.124;2023-03-11T03:23:23;1.50;99.90
46706;DHT22;33519;50.712;7.124;2023-03-11T03:25:50;1.40;99.90
46706;DHT22;33519;50.712;7.124;2023-03-11T03:28:17;1.40;99.90
46706;DHT22;33519;50.712;7.124;2023-03-11T03:30:43;1.40;99.90
46706;DHT22;33519;50.712;7.124;2023-03-11T03:33:10;1.30;99.90
46706;DHT22;33519;50.712;7.124;2023-03-11T03:35:39;1.30;99.90
46706;DHT22;33519;50.712;7.124;2023-03-11T03:38:05;1.30;99.90
46706;DHT22;33519;50.712;7.124;2023-03-11T03:40:32;1.30;99.90
46706;DHT22;33519;50.712;7.124;2023-03-11T03:42:59;1.20;99.90
46706;DHT22;33519;50.712;7.124;2023-03-11T03:45:25;1.20;99.90
46706;DHT22;33519;50.712;7.124;2023-03-11T03:47:52;1.20;99.90
46706;DHT22;33519;50.712;7.124;2023-03-11T03:50:18;1.10;99.90
46706;DHT22;33519;50.712;7.124;2023-03-11T03:52:45;1.10;99.90
46706;DHT22;33519;50.712;7.124;2023-03-11T03:55:11;1.10;99.90
46706;DHT22;33519;50.712;7.124;2023-03-11T03:57:38;1.10;99.90
46706;DHT22;33519;50.712;7.124;2023-03-11T04:00:05;1.10;99.90
46706;DHT22;33519;50.712;7.124;2023-03-11T04:02:34;1.00;99.90
46706;DHT22;33519;50.712;7.124;2023-03-11T04:05:01;1.00;99.90
46706;DHT22;33519;50.712;7.124;2023-03-11T04:07:27;1.00;99.90
46706;DHT22;33519;50.712;7.124;2023-03-11T04:09:54;0.90;99.90
46706;DHT22;33519;50.712;7.124;2023-03-11T04:12:20;0.90;99.90
46706;DHT22;33519;50.712;7.124;2023-03-11T04:14:47;0.90;99.90
46706;DHT22;33519;50.712;7.124;2023-03-11T04:17:14;0.90;99.90
46706;DHT22;33519;50.712;7.124;2023-03-11T04:19:44;0.80;99.90
46706;DHT22;33519;50.712;7.124;2023-03-11T04:22:11;0.80;99.90
46706;DHT22;33519;50.712;7.124;2023-03-11T04:24:37;0.80;99.90
46706;DHT22;33519;50.712;7.124;2023-03-11T04:27:04;0.70;99.90
46706;DHT22;33519;50.712;7.124;2023-03-11T04:29:30;0.70;99.90
46706;DHT22;33519;50.712;7.124;2023-03-11T04:31:57;0.70;99.90
46706;DHT22;33519;50.712;7.124;2023-03-11T04:34:23;0.60;99.90
46706;DHT22;33519;50.712;7.124;2023-03-11T04:36:51;0.60;99.90
46706;DHT22;33519;50.712;7.124;2023-03-11T04:39:17;0.60;99.90
46706;DHT22;33519;50.712;7.124;2023-03-11T04:41:44;0.60;99.90
46706;DHT22;33519;50.712;7.124;2023-03-11T04:44:11;0.60;99.90
46706;DHT22;33519;50.712;7.124;2023-03-11T04:46:37;0.60;99.90
46706;DHT22;33519;50.712;7.124;2023-03-11T04:49:04;0.50;99.90
46706;DHT22;33519;50.712;7.124;2023-03-11T04:51:31;0.50;99.90
46706;DHT22;33519;50.712;7.124;2023-03-11T04:53:57;0.60;99.90
46706;DHT22;33519;50.712;7.124;2023-03-11T04:56:24;0.50;99.90
46706;DHT22;33519;50.712;7.124;2023-03-11T04:58:51;0.50;99.90
46706;DHT22;33519;50.712;7.124;2023-03-11T05:01:17;0.50;99.90
46706;DHT22;33519;50.712;7.124;2023-03-11T05:03:44;0.60;99.90
46706;DHT22;33519;50.712;7.124;2023-03-11T05:06:11;0.60;99.90
46706;DHT22;33519;50.712;7.124;2023-03-11T05:08:38;0.60;99.90
46706;DHT22;33519;50.712;7.124;2023-03-11T05:11:05;0.60;99.90
46706;DHT22;33519;50.712;7.124;2023-03-11T05:13:32;0.50;99.90
46706;DHT22;33519;50.712;7.124;2023-03-11T05:15:59;0.50;99.90
46706;DHT22;33519;50.712;7.124;2023-03-11T05:18:26;0.60;99.90
46706;DHT22;33519;50.712;7.124;2023-03-11T05:20:53;0.60;99.90
46706;DHT22;33519;50.712;7.124;2023-03-11T05:23:19;0.50;99.90
46706;DHT22;33519;50.712;7.124;2023-03-11T05:25:46;0.50;99.90
46706;DHT22;33519;50.712;7.124;2023-03-11T05:28:12;0.40;99.90
46706;DHT22;33519;50.712;7.124;2023-03-11T05:30:39;0.40;99.90
46706;DHT22;33519;50.712;7.124;2023-03-11T05:33:06;0.40;99.90
46706;DHT22;33519;50.712;7.124;2023-03-11T05:35:33;0.40;99.90
46706;DHT22;33519;50.712;7.124;2023-03-11T05:37:59;0.30;99.90
46706;DHT22;33519;50.712;7.124;2023-03-11T05:40:26;0.40;99.90
46706;DHT22;33519;50.712;7.124;2023-03-11T05:42:52;0.30;99.90
46706;DHT22;33519;50.712;7.124;2023-03-11T05:45:19;0.30;99.90
46706;DHT22;33519;50.712;7.124;2023-03-11T05:47:46;0.30;99.90
46706;DHT22;33519;50.712;7.124;2023-03-11T05:50:12;0.30;99.90
46706;DHT22;33519;50.712;7.124;2023-03-11T05:52:39;0.30;99.90
46706;DHT22;33519;50.712;7.124;2023-03-11T05:55:05;0.30;99.90
46706;DHT22;33519;50.712;7.124;2023-03-11T05:57:32;0.40;99.90
46706;DHT22;33519;50.712;7.124;2023-03-11T05:59:59;0.40;99.90
46706;DHT22;33519;50.712;7.124;2023-03-11T06:02:25;0.40;99.90
46706;DHT22;33519;50.712;7.124;2023-03-11T06:04:52;0.40;99.90
46706;DHT22;33519;50.712;7.124;2023-03-11T06:07:19;0.40;99.90
46706;DHT22;33519;50.712;7.124;2023-03-11T06:09:45;0.40;99.90
46706;DHT22;33519;50.712;7.124;2023-03-11T06:12:12;0.50;99.90
46706;DHT22;33519;50.712;7.124;2023-03-11T06:14:38;0.40;99.90
46706;DHT22;33519;50.712;7.124;2023-03-11T06:17:05;0.50;99.90
46706;DHT22;33519;50.712;7.124;2023-03-11T06:19:32;0.50;99.90
46706;DHT22;33519;50.712;7.124;2023-03-11T06:21:59;0.50;99.90
46706;DHT22;33519;50.712;7.124;2023-03-11T06:24:25;0.60;99.90
46706;DHT22;33519;50.712;7.124;2023-03-11T06:26:52;0.60;99.90
46706;DHT22;33519;50.712;7.124;2023-03-11T06:29:19;0.60;99.90
46706;DHT22;33519;50.712;7.124;2023-03-11T06:31:49;0.70;99.90
46706;DHT22;33519;50.712;7.124;2023-03-11T06:34:16;0.80;99.90
46706;DHT22;33519;50.712;7.124;2023-03-11T06:36:42;0.80;99.90
46706;DHT22;33519;50.712;7.124;2023-03-11T06:39:11;0.80;99.90
46706;DHT22;33519;50.712;7.124;2023-03-11T06:41:38;0.90;99.90
46706;DHT22;33519;50.712;7.124;2023-03-11T06:44:04;1.00;99.90
46706;DHT22;33519;50.712;7.124;2023-03-11T06:46:31;1.00;99.90
46706;DHT22;33519;50.712;7.124;2023-03-11T06:48:57;1.10;99.90
46706;DHT22;33519;50.712;7.124;2023-03-11T06:51:24;1.20;99.90
46706;DHT22;33519;50.712;7.124;2023-03-11T06:53:53;1.30;99.90
46706;DHT22;33519;50.712;7.124;2023-03-11T06:56:20;1.40;99.90
46706;DHT22;33519;50.712;7.124;2023-03-11T06:58:47;1.30;99.90
46706;DHT22;33519;50.712;7.124;2023-03-11T07:01:14;1.40;99.90
46706;DHT22;33519;50.712;7.124;2023-03-11T07:03:42;1.40;99.90
46706;DHT22;33519;50.712;7.124;2023-03-11T07:06:12;1.40;99.90
46706;DHT22;33519;50.712;7.124;2023-03-11T07:08:39;1.50;99.90
46706;DHT22;33519;50.712;7.124;2023-03-11T07:11:07;1.50;99.90
46706;DHT22;33519;50.712;7.124;2023-03-11T07:13:34;1.60;99.90
46706;DHT22;33519;50.712;7.124;2023-03-11T07:16:08;1.70;99.90
46706;DHT22;33519;50.712;7.124;2023-03-11T07:18:36;1.70;99.90
46706;DHT22;33519;50.712;7.124;2023-03-11T07:21:03;1.70;99.90
46706;DHT22;33519;50.712;7.124;2023-03-11T07:23:29;1.80;99.90
46706;DHT22;33519;50.712;7.124;2023-03-11T07:25:56;1.80;99.90
46706;DHT22;33519;50.712;7.124;2023-03-11T07:28:23;1.80;99.90
46706;DHT22;33519;50.712;7.124;2023-03-11T07:30:50;1.90;99.90
46706;DHT22;33519;50.712;7.124;2023-03-11T07:33:17;2.00;99.90
46706;DHT22;33519;50.712;7.124;2023-03-11T07:35:44;2.00;99.90
46706;DHT22;33519;50.712;7.124;2023-03-11T07:38:11;2.00;99.90
46706;DHT22;33519;50.712;7.124;2023-03-11T07:40:38;2.10;99.90
46706;DHT22;33519;50.712;7.124;2023-03-11T07:43:04;2.10;99.90
46706;DHT22;33519;50.712;7.124;2023-03-11T07:45:31;2.10;99.90
46706;DHT22;33519;50.712;7.124;2023-03-11T07:47:57;2.00;99.90
46706;DHT22;33519;50.712;7.124;2023-03-11T07:50:24;2.00;99.90
46706;DHT22;33519;50.712;7.124;2023-03-11T07:52:51;2.00;99.90
46706;DHT22;33519;50.712;7.124;2023-03-11T07:55:17;2.00;99.90
46706;DHT22;33519;50.712;7.124;2023-03-11T07:57:47;2.10;99.90
46706;DHT22;33519;50.712;7.124;2023-03-11T08:00:17;2.10;99.90
46706;DHT22;33519;50.712;7.124;2023-03-11T08:02:43;2.10;99.90
46706;DHT22;33519;50.712;7.124;2023-03-11T08:05:10;2.30;99.90
46706;DHT22;33519;50.712;7.124;2023-03-11T08:10:07;2.30;99.90
46706;DHT22;33519;50.712;7.124;2023-03-11T08:12:33;2.40;99.90
46706;DHT22;33519;50.712;7.124;2023-03-11T08:15:00;2.50;99.90
46706;DHT22;33519;50.712;7.124;2023-03-11T08:17:27;2.50;99.90
46706;DHT22;33519;50.712;7.124;2023-03-11T08:19:53;2.30;99.90
46706;DHT22;33519;50.712;7.124;2023-03-11T08:22:20;2.40;99.90
46706;DHT22;33519;50.712;7.124;2023-03-11T08:24:50;2.40;99.90
46706;DHT22;33519;50.712;7.124;2023-03-11T08:27:17;2.30;99.90
46706;DHT22;33519;50.712;7.124;2023-03-11T08:29:43;2.40;99.90
46706;DHT22;33519;50.712;7.124;2023-03-11T08:32:10;2.50;99.90
46706;DHT22;33519;50.712;7.124;2023-03-11T08:34:37;2.60;99.90
46706;DHT22;33519;50.712;7.124;2023-03-11T08:37:04;2.70;99.90
46706;DHT22;33519;50.712;7.124;2023-03-11T08:39:31;2.80;99.90
46706;DHT22;33519;50.712;7.124;2023-03-11T08:41:58;3.00;99.90
46706;DHT22;33519;50.712;7.124;2023-03-11T08:44:25;2.90;99.90
46706;DHT22;33519;50.712;7.124;2023-03-11T08:46:51;2.90;99.90
46706;DHT22;33519;50.712;7.124;2023-03-11T08:49:18;3.00;99.90
46706;DHT22;33519;50.712;7.124;2023-03-11T08:51:44;3.00;99.90
46706;DHT22;33519;50.712;7.124;2023-03-11T08:54:11;3.20;99.90
46706;DHT22;33519;50.712;7.124;2023-03-11T08:56:37;3.10;99.90
46706;DHT22;33519;50.712;7.124;2023-03-11T08:59:04;3.40;99.90
46706;DHT22;33519;50.712;7.124;2023-03-11T09:01:31;3.50;99.90
46706;DHT22;33519;50.712;7.124;2023-03-11T09:03:57;3.80;99.90
46706;DHT22;33519;50.712;7.124;2023-03-11T09:06:24;4.20;99.90
46706;DHT22;33519;50.712;7.124;2023-03-11T09:08:51;4.40;99.90
46706;DHT22;33519;50.712;7.124;2023-03-11T09:11:17;4.40;99.90
46706;DHT22;33519;50.712;7.124;2023-03-11T09:13:44;4.80;99.90
46706;DHT22;33519;50.712;7.124;2023-03-11T09:16:11;6.00;99.20
46706;DHT22;33519;50.712;7.124;2023-03-11T09:18:39;6.50;95.90
46706;DHT22;33519;50.712;7.124;2023-03-11T09:21:05;7.80;92.70
46706;DHT22;33519;50.712;7.124;2023-03-11T09:23:32;9.30;86.20
46706;DHT22;33519;50.712;7.124;2023-03-11T09:25:58;9.90;86.00
46706;DHT22;33519;50.712;7.124;2023-03-11T09:28:25;11.10;84.00
46706;DHT22;33519;50.712;7.124;2023-03-11T09:30:51;11.30;80.70
46706;DHT22;33519;50.712;7.124;2023-03-11T09:33:18;9.00;83.20
46706;DHT22;33519;50.712;7.124;2023-03-11T09:35:44;8.60;89.20
46706;DHT22;33519;50.712;7.124;2023-03-11T09:38:11;8.10;83.20
46706;DHT22;33519;50.712;7.124;2023-03-11T09:40:42;7.80;81.20
46706;DHT22;33519;50.712;7.124;2023-03-11T09:45:40;6.00;90.40
46706;DHT22;33519;50.712;7.124;2023-03-11T09:48:22;5.60;91.30
46706;DHT22;33519;50.712;7.124;2023-03-11T09:50:52;5.00;92.60
46706;DHT22;33519;50.712;7.124;2023-03-11T09:55:53;5.00;87.40
46706;DHT22;33519;50.712;7.124;2023-03-11T09:58:33;4.70;88.60
46706;DHT22;33519;50.712;7.124;2023-03-11T10:01:02;4.60;90.50
46706;DHT22;33519;50.712;7.124;2023-03-11T10:03:31;4.30;90.20
46706;DHT22;33519;50.712;7.124;2023-03-11T10:06:14;4.20;90.20
46706;DHT22;33519;50.712;7.124;2023-03-11T10:08:42;4.20;88.80
46706;DHT22;33519;50.712;7.124;2023-03-11T10:13:42;4.20;90.50
46706;DHT22;33519;50.712;7.124;2023-03-11T10:19:10;4.50;91.60
46706;DHT22;33519;50.712;7.124;2023-03-11T10:26:54;9.10;81.20
46706;DHT22;33519;50.712;7.124;2023-03-11T10:29:25;10.10;78.40
46706;DHT22;33519;50.712;7.124;2023-03-11T10:31:53;10.30;77.70
46706;DHT22;33519;50.712;7.124;2023-03-11T10:34:24;11.10;73.10
46706;DHT22;33519;50.712;7.124;2023-03-11T10:39:18;11.80;69.40
46706;DHT22;33519;50.712;7.124;2023-03-11T10:41:55;12.90;67.60
46706;DHT22;33519;50.712;7.124;2023-03-11T10:44:24;10.90;64.60
46706;DHT22;33519;50.712;7.124;2023-03-11T10:46:52;9.60;64.20
46706;DHT22;33519;50.712;7.124;2023-03-11T10:49:19;9.30;66.90
46706;DHT22;33519;50.712;7.124;2023-03-11T10:51:47;8.60;69.20
46706;DHT22;33519;50.712;7.124;2023-03-11T10:54:51;8.00;71.40
46706;DHT22;33519;50.712;7.124;2023-03-11T10:57:21;7.40;75.20
46706;DHT22;33519;50.712;7.124;2023-03-11T10:59:51;6.80;76.30
46706;DHT22;33519;50.712;7.124;2023-03-11T11:04:45;7.50;78.10
46706;DHT22;33519;50.712;7.124;2023-03-11T11:07:26;9.20;76.00
46706;DHT22;33519;50.712;7.124;2023-03-11T11:15:26;11.60;69.40
46706;DHT22;33519;50.712;7.124;2023-03-11T11:17:53;12.10;64.30
46706;DHT22;33519;50.712;7.124;2023-03-11T11:20:22;13.00;66.10
46706;DHT22;33519;50.712;7.124;2023-03-11T11:22:50;13.10;67.40
46706;DHT22;33519;50.712;7.124;2023-03-11T11:25:24;12.40;67.50
46706;DHT22;33519;50.712;7.124;2023-03-11T11:27:52;11.20;69.20
46706;DHT22;33519;50.712;7.124;2023-03-11T11:30:19;9.20;70.80
46706;DHT22;33519;50.712;7.124;2023-03-11T11:32:46;9.00;72.00
46706;DHT22;33519;50.712;7.124;2023-03-11T11:35:13;8.80;73.60
46706;DHT22;33519;50.712;7.124;2023-03-11T11:37:41;7.90;76.40
46706;DHT22;33519;50.712;7.124;2023-03-11T11:42:46;7.10;79.60
46706;DHT22;33519;50.712;7.124;2023-03-11T11:45:23;6.90;77.40
46706;DHT22;33519;50.712;7.124;2023-03-11T11:47:51;7.20;77.10
46706;DHT22;33519;50.712;7.124;2023-03-11T11:51:07;7.10;80.50
46706;DHT22;33519;50.712;7.124;2023-03-11T11:55:46;6.90;77.40
46706;DHT22;33519;50.712;7.124;2023-03-11T11:58:13;7.10;78.10
46706;DHT22;33519;50.712;7.124;2023-03-11T12:16:04;7.20;76.30
46706;DHT22;33519;50.712;7.124;2023-03-11T12:18:35;7.10;77.80
46706;DHT22;33519;50.712;7.124;2023-03-11T12:23:56;7.00;74.90
46706;DHT22;33519;50.712;7.124;2023-03-11T12:26:28;7.80;75.40
46706;DHT22;33519;50.712;7.124;2023-03-11T12:31:26;9.20;69.70
46706;DHT22;33519;50.712;7.124;2023-03-11T12:38:49;8.10;71.60
46706;DHT22;33519;50.712;7.124;2023-03-11T12:41:35;7.90;76.80
46706;DHT22;33519;50.712;7.124;2023-03-11T12:44:18;7.80;75.20
46706;DHT22;33519;50.712;7.124;2023-03-11T12:52:02;7.70;71.70
46706;DHT22;33519;50.712;7.124;2023-03-11T12:56:59;7.70;70.00
46706;DHT22;33519;50.712;7.124;2023-03-11T13:12:39;8.10;72.60
46706;DHT22;33519;50.712;7.124;2023-03-11T13:17:57;8.20;70.20
46706;DHT22;33519;50.712;7.124;2023-03-11T13:25:42;7.60;71.60
46706;DHT22;33519;50.712;7.124;2023-03-11T13:28:15;8.20;72.30
46706;DHT22;33519;50.712;7.124;2023-03-11T13:30:50;9.50;69.70
46706;DHT22;33519;50.712;7.124;2023-03-11T13:33:20;9.50;71.50
46706;DHT22;33519;50.712;7.124;2023-03-11T13:38:32;8.80;69.30
46706;DHT22;33519;50.712;7.124;2023-03-11T13:41:00;9.60;69.40
46706;DHT22;33519;50.712;7.124;2023-03-11T13:43:28;9.60;66.20
46706;DHT22;33519;50.712;7.124;2023-03-11T13:45:56;9.80;67.30
46706;DHT22;33519;50.712;7.124;2023-03-11T13:48:28;10.20;68.80
46706;DHT22;33519;50.712;7.124;2023-03-11T13:50:57;9.60;67.10
46706;DHT22;33519;50.712;7.124;2023-03-11T13:53:29;10.30;71.20
46706;DHT22;33519;50.712;7.124;2023-03-11T13:55:57;10.80;68.40
46706;DHT22;33519;50.712;7.124;2023-03-11T13:58:25;11.20;65.60
46706;DHT22;33519;50.712;7.124;2023-03-11T14:00:59;11.10;68.00
46706;DHT22;33519;50.712;7.124;2023-03-11T14:03:31;11.20;66.40
46706;DHT22;33519;50.712;7.124;2023-03-11T14:06:00;11.10;70.20
46706;DHT22;33519;50.712;7.124;2023-03-11T14:08:28;11.60;65.90
46706;DHT22;33519;50.712;7.124;2023-03-11T14:11:15;12.10;69.50
46706;DHT22;33519;50.712;7.124;2023-03-11T14:13:43;12.10;65.20
46706;DHT22;33519;50.712;7.124;2023-03-11T14:16:16;11.50;61.70
46706;DHT22;33519;50.712;7.124;2023-03-11T14:18:59;11.10;62.70
46706;DHT22;33519;50.712;7.124;2023-03-11T14:21:26;11.70;65.00
46706;DHT22;33519;50.712;7.124;2023-03-11T14:23:53;11.30;64.60
46706;DHT22;33519;50.712;7.124;2023-03-11T14:26:25;12.00;62.20
46706;DHT22;33519;50.712;7.124;2023-03-11T14:28:53;12.30;64.60
46706;DHT22;33519;50.712;7.124;2023-03-11T14:31:42;12.10;64.10
46706;DHT22;33519;50.712;7.124;2023-03-11T14:36:45;11.30;63.60
46706;DHT22;33519;50.712;7.124;2023-03-11T14:39:24;11.20;65.40
46706;DHT22;33519;50.712;7.124;2023-03-11T14:41:52;11.10;64.90
46706;DHT22;33519;50.712;7.124;2023-03-11T14:44:20;10.90;63.60
46706;DHT22;33519;50.712;7.124;2023-03-11T14:46:48;10.40;64.50
46706;DHT22;33519;50.712;7.124;2023-03-11T14:49:19;10.50;63.40
46706;DHT22;33519;50.712;7.124;2023-03-11T14:51:47;11.20;63.10
46706;DHT22;33519;50.712;7.124;2023-03-11T14:54:19;11.20;65.50
46706;DHT22;33519;50.712;7.124;2023-03-11T14:56:49;11.70;62.30
46706;DHT22;33519;50.712;7.124;2023-03-11T14:59:25;11.90;60.80
46706;DHT22;33519;50.712;7.124;2023-03-11T15:01:53;11.90;62.10
46706;DHT22;33519;50.712;7.124;2023-03-11T15:06:49;11.90;63.00
46706;DHT22;33519;50.712;7.124;2023-03-11T15:09:17;12.10;59.20
46706;DHT22;33519;50.712;7.124;2023-03-11T15:14:27;12.80;62.30
46706;DHT22;33519;50.712;7.124;2023-03-11T15:16:54;12.50;59.30
46706;DHT22;33519;50.712;7.124;2023-03-11T15:19:22;10.20;60.90
46706;DHT22;33519;50.712;7.124;2023-03-11T15:21:50;9.40;64.40
46706;DHT22;33519;50.712;7.124;2023-03-11T15:24:20;8.90;68.20
46706;DHT22;33519;50.712;7.124;2023-03-11T15:26:58;8.80;70.30
46706;DHT22;33519;50.712;7.124;2023-03-11T15:29:25;8.40;71.30
46706;DHT22;33519;50.712;7.124;2023-03-11T15:31:52;7.90;70.60
46706;DHT22;33519;50.712;7.124;2023-03-11T15:34:23;7.90;71.00
46706;DHT22;33519;50.712;7.124;2023-03-11T15:41:45;7.70;71.90
46706;DHT22;33519;50.712;7.124;2023-03-11T15:44:27;7.80;71.60
46706;DHT22;33519;50.712;7.124;2023-03-11T15:46:54;7.60;71.90
46706;DHT22;33519;50.712;7.124;2023-03-11T15:49:21;7.70;71.50
46706;DHT22;33519;50.712;7.124;2023-03-11T15:51:48;8.40;73.50
46706;DHT22;33519;50.712;7.124;2023-03-11T15:54:14;10.30;69.00
46706;DHT22;33519;50.712;7.124;2023-03-11T15:56:41;11.90;64.90
46706;DHT22;33519;50.712;7.124;2023-03-11T15:59:11;12.40;62.30
46706;DHT22;33519;50.712;7.124;2023-03-11T16:01:39;13.30;59.70
46706;DHT22;33519;50.712;7.124;2023-03-11T16:04:12;14.60;58.50
46706;DHT22;33519;50.712;7.124;2023-03-11T16:06:40;15.40;57.00
46706;DHT22;33519;50.712;7.124;2023-03-11T16:11:39;15.80;56.00
46706;DHT22;33519;50.712;7.124;2023-03-11T16:14:13;16.30;54.10
46706;DHT22;33519;50.712;7.124;2023-03-11T16:16:40;16.90;53.50
46706;DHT22;33519;50.712;7.124;2023-03-11T16:19:07;16.60;53.70
46706;DHT22;33519;50.712;7.124;2023-03-11T16:21:35;16.70;52.90
46706;DHT22;33519;50.712;7.124;2023-03-11T16:24:03;16.50;52.60
46706;DHT22;33519;50.712;7.124;2023-03-11T16:26:30;15.40;53.90
46706;DHT22;33519;50.712;7.124;2023-03-11T16:28:57;15.20;53.10
46706;DHT22;33519;50.712;7.124;2023-03-11T16:31:43;15.20;55.50
46706;DHT22;33519;50.712;7.124;2023-03-11T16:34:10;15.20;53.90
46706;DHT22;33519;50.712;7.124;2023-03-11T16:36:36;14.70;54.90
46706;DHT22;33519;50.712;7.124;2023-03-11T16:39:03;14.90;56.60
46706;DHT22;33519;50.712;7.124;2023-03-11T16:41:33;15.40;54.00
46706;DHT22;33519;50.712;7.124;2023-03-11T16:44:05;15.00;53.50
46706;DHT22;33519;50.712;7.124;2023-03-11T16:46:35;15.30;53.70
46706;DHT22;33519;50.712;7.124;2023-03-11T16:49:01;15.70;53.00
46706;DHT22;33519;50.712;7.124;2023-03-11T16:51:28;15.00;52.90
46706;DHT22;33519;50.712;7.124;2023-03-11T16:53:55;14.90;53.70
46706;DHT22;33519;50.712;7.124;2023-03-11T16:56:21;14.30;53.40
46706;DHT22;33519;50.712;7.124;2023-03-11T16:58:48;14.10;53.90
46706;DHT22;33519;50.712;7.124;2023-03-11T17:01:14;13.80;53.20
46706;DHT22;33519;50.712;7.124;2023-03-11T17:03:43;13.50;56.10
46706;DHT22;33519;50.712;7.124;2023-03-11T17:06:11;12.20;55.80
46706;DHT22;33519;50.712;7.124;2023-03-11T17:08:38;10.80;59.90
46706;DHT22;33519;50.712;7.124;2023-03-11T17:11:04;9.50;61.60
46706;DHT22;33519;50.712;7.124;2023-03-11T17:13:31;9.00;62.30
46706;DHT22;33519;50.712;7.124;2023-03-11T17:15:58;8.20;63.30
46706;DHT22;33519;50.712;7.124;2023-03-11T17:18:25;7.70;66.30
46706;DHT22;33519;50.712;7.124;2023-03-11T17:20:52;7.50;66.00
46706;DHT22;33519;50.712;7.124;2023-03-11T17:23:19;7.20;67.60
46706;DHT22;33519;50.712;7.124;2023-03-11T17:25:45;6.90;67.60
46706;DHT22;33519;50.712;7.124;2023-03-11T17:28:12;6.80;67.90
46706;DHT22;33519;50.712;7.124;2023-03-11T17:30:42;6.70;69.60
46706;DHT22;33519;50.712;7.124;2023-03-11T17:33:09;6.30;70.10
46706;DHT22;33519;50.712;7.124;2023-03-11T17:35:36;6.10;71.30
46706;DHT22;33519;50.712;7.124;2023-03-11T17:38:03;6.10;71.60
46706;DHT22;33519;50.712;7.124;2023-03-11T17:40:29;6.00;72.10